sensor_id;sensor_type;location;lat;lon;timestamp;temperature;humidity
56268;DHT22;42175;46.930;9.532;2023-07-31T00:00:49;23.20;60.10
56268;DHT22;42175;46.930;9.532;2023-07-31T00:03:15;23.20;60.10
56268;DHT22;42175;46.930;9.532;2023-07-31T00:05:41;23.20;60.00
56268;DHT22;42175;46.930;9.532;2023-07-31T00:08:06;23.20;60.00
56268;DHT22;42175;46.930;9.532;2023-07-31T00:10:32;23.20;60.10
56268;DHT22;42175;46.930;9.532;2023-07-31T00:12:59;23.20;60.00
56268;DHT22;42175;46.930;9.532;2023-07-31T00:15:24;23.20;60.00
56268;DHT22;42175;46.930;9.532;2023-07-31T00:17:50;23.20;60.10
56268;DHT22;42175;46.930;9.532;2023-07-31T00:20:16;23.20;60.10
56268;DHT22;42175;46.930;9.532;2023-07-31T00:22:41;23.20;60.10
56268;DHT22;42175;46.930;9.532;2023-07-31T00:25:07;23.20;60.10
56268;DHT22;42175;46.930;9.532;2023-07-31T00:27:33;23.20;60.10
56268;DHT22;42175;46.930;9.532;2023-07-31T00:29:58;23.20;60.10
56268;DHT22;42175;46.930;9.532;2023-07-31T00:32:24;23.20;60.00
56268;DHT22;42175;46.930;9.532;2023-07-31T00:34:50;23.20;60.00
56268;DHT22;42175;46.930;9.532;2023-07-31T00:37:15;23.20;60.10
56268;DHT22;42175;46.930;9.532;2023-07-31T00:39:41;23.20;59.90
56268;DHT22;42175;46.930;9.532;2023-07-31T00:42:07;23.20;60.00
56268;DHT22;42175;46.930;9.532;2023-07-31T00:44:33;23.20;60.00
56268;DHT22;42175;46.930;9.532;2023-07-31T00:46:59;23.20;60.10
56268;DHT22;42175;46.930;9.532;2023-07-31T00:49:25;23.20;60.00
56268;DHT22;42175;46.930;9.532;2023-07-31T00:51:52;23.20;60.00
56268;DHT22;42175;46.930;9.532;2023-07-31T00:54:18;23.20;60.00
56268;DHT22;42175;46.930;9.532;2023-07-31T00:56:45;23.20;60.00
56268;DHT22;42175;46.930;9.532;2023-07-31T00:59:11;23.20;60.00
56268;DHT22;42175;46.930;9.532;2023-07-31T01:01:38;23.20;60.00
56268;DHT22;42175;46.930;9.532;2023-07-31T01:04:04;23.20;60.60
56268;DHT22;42175;46.930;9.532;2023-07-31T01:09:01;23.20;60.10
56268;DHT22;42175;46.930;9.532;2023-07-31T01:11:30;23.20;60.10
56268;DHT22;42175;46.930;9.532;2023-07-31T01:13:58;23.20;60.00
56268;DHT22;42175;46.930;9.532;2023-07-31T01:16:27;23.20;60.00
56268;DHT22;42175;46.930;9.532;2023-07-31T01:18:53;23.20;60.10
56268;DHT22;42175;46.930;9.532;2023-07-31T01:26:53;23.20;60.00
56268;DHT22;42175;46.930;9.532;2023-07-31T01:31:48;23.20;59.80
56268;DHT22;42175;46.930;9.532;2023-07-31T01:34:17;23.20;59.90
56268;DHT22;42175;46.930;9.532;2023-07-31T01:36:44;23.20;60.10
56268;DHT22;42175;46.930;9.532;2023-07-31T01:39:09;23.20;60.10
56268;DHT22;42175;46.930;9.532;2023-07-31T01:41:35;23.20;60.10
56268;DHT22;42175;46.930;9.532;2023-07-31T01:44:01;23.20;60.10
56268;DHT22;42175;46.930;9.532;2023-07-31T01:46:27;23.20;60.20
56268;DHT22;42175;46.930;9.532;2023-07-31T01:48:52;23.20;60.10
56268;DHT22;42175;46.930;9.532;2023-07-31T01:51:18;23.20;60.00
56268;DHT22;42175;46.930;9.532;2023-07-31T01:53:44;23.20;60.00
56268;DHT22;42175;46.930;9.532;2023-07-31T01:56:09;23.10;59.80
56268;DHT22;42175;46.930;9.532;2023-07-31T01:58:35;23.10;59.80
56268;DHT22;42175;46.930;9.532;2023-07-31T02:01:00;23.20;59.80
56268;DHT22;42175;46.930;9.532;2023-07-31T02:03:26;23.20;59.70
56268;DHT22;42175;46.930;9.532;2023-07-31T02:05:54;23.10;60.30
56268;DHT22;42175;46.930;9.532;2023-07-31T02:08:19;23.20;59.90
56268;DHT22;42175;46.930;9.532;2023-07-31T02:10:45;23.20;60.00
56268;DHT22;42175;46.930;9.532;2023-07-31T02:13:11;23.20;60.00
56268;DHT22;42175;46.930;9.532;2023-07-31T02:15:37;23.20;59.90
56268;DHT22;42175;46.930;9.532;2023-07-31T02:18:03;23.20;60.10
56268;DHT22;42175;46.930;9.532;2023-07-31T02:20:28;23.20;60.00
56268;DHT22;42175;46.930;9.532;2023-07-31T02:22:54;23.20;60.00
56268;DHT22;42175;46.930;9.532;2023-07-31T02:25:20;23.20;59.90
56268;DHT22;42175;46.930;9.532;2023-07-31T02:27:45;23.20;59.90
56268;DHT22;42175;46.930;9.532;2023-07-31T02:30:11;23.20;59.90
56268;DHT22;42175;46.930;9.532;2023-07-31T02:32:37;23.10;59.90
56268;DHT22;42175;46.930;9.532;2023-07-31T02:35:03;23.10;59.90
56268;DHT22;42175;46.930;9.532;2023-07-31T02:37:29;23.10;59.80
56268;DHT22;42175;46.930;9.532;2023-07-31T02:39:55;23.20;59.80
56268;DHT22;42175;46.930;9.532;2023-07-31T02:42:20;23.20;59.60
56268;DHT22;42175;46.930;9.532;2023-07-31T02:44:46;23.20;59.50
56268;DHT22;42175;46.930;9.532;2023-07-31T02:47:12;23.20;59.50
56268;DHT22;42175;46.930;9.532;2023-07-31T02:49:37;23.20;59.50
56268;DHT22;42175;46.930;9.532;2023-07-31T02:52:03;23.20;59.50
56268;DHT22;42175;46.930;9.532;2023-07-31T02:54:29;23.10;59.50
56268;DHT22;42175;46.930;9.532;2023-07-31T02:56:55;23.20;59.70
56268;DHT22;42175;46.930;9.532;2023-07-31T02:59:21;23.20;59.70
56268;DHT22;42175;46.930;9.532;2023-07-31T03:01:46;23.20;59.80
56268;DHT22;42175;46.930;9.532;2023-07-31T03:04:12;23.20;59.70
56268;DHT22;42175;46.930;9.532;2023-07-31T03:06:38;23.10;59.60
56268;DHT22;42175;46.930;9.532;2023-07-31T03:09:03;23.10;59.70
56268;DHT22;42175;46.930;9.532;2023-07-31T03:11:29;23.10;59.70
56268;DHT22;42175;46.930;9.532;2023-07-31T03:13:55;23.20;59.70
56268;DHT22;42175;46.930;9.532;2023-07-31T03:16:20;23.10;59.70
56268;DHT22;42175;46.930;9.532;2023-07-31T03:18:46;23.10;59.70
56268;DHT22;42175;46.930;9.532;2023-07-31T03:21:12;23.10;59.50
56268;DHT22;42175;46.930;9.532;2023-07-31T03:23:38;23.10;59.40
56268;DHT22;42175;46.930;9.532;2023-07-31T03:26:06;23.10;59.30
56268;DHT22;42175;46.930;9.532;2023-07-31T03:28:32;23.20;59.30
56268;DHT22;42175;46.930;9.532;2023-07-31T03:30:58;23.10;59.20
56268;DHT22;42175;46.930;9.532;2023-07-31T03:33:24;23.10;59.20
56268;DHT22;42175;46.930;9.532;2023-07-31T03:35:50;23.10;59.30
56268;DHT22;42175;46.930;9.532;2023-07-31T03:38:16;23.10;59.30
56268;DHT22;42175;46.930;9.532;2023-07-31T03:40:41;23.10;59.40
56268;DHT22;42175;46.930;9.532;2023-07-31T03:43:07;23.10;59.40
56268;DHT22;42175;46.930;9.532;2023-07-31T03:45:33;23.20;59.50
56268;DHT22;42175;46.930;9.532;2023-07-31T03:47:58;23.10;59.40
56268;DHT22;42175;46.930;9.532;2023-07-31T03:50:24;23.10;59.50
56268;DHT22;42175;46.930;9.532;2023-07-31T03:52:50;23.10;59.50
56268;DHT22;42175;46.930;9.532;2023-07-31T03:55:16;23.20;59.60
56268;DHT22;42175;46.930;9.532;2023-07-31T03:57:43;23.10;59.60
56268;DHT22;42175;46.930;9.532;2023-07-31T04:00:09;23.20;59.70
56268;DHT22;42175;46.930;9.532;2023-07-31T04:02:35;23.10;60.20
56268;DHT22;42175;46.930;9.532;2023-07-31T04:05:01;23.10;59.50
56268;DHT22;42175;46.930;9.532;2023-07-31T04:07:26;23.10;59.50
56268;DHT22;42175;46.930;9.532;2023-07-31T04:09:52;23.10;59.50
56268;DHT22;42175;46.930;9.532;2023-07-31T04:12:18;23.10;59.40
56268;DHT22;42175;46.930;9.532;2023-07-31T04:14:43;23.10;59.30
56268;DHT22;42175;46.930;9.532;2023-07-31T04:17:09;23.10;59.20
56268;DHT22;42175;46.930;9.532;2023-07-31T04:19:35;23.10;59.20
56268;DHT22;42175;46.930;9.532;2023-07-31T04:22:00;23.10;59.10
56268;DHT22;42175;46.930;9.532;2023-07-31T04:24:26;23.10;59.00
56268;DHT22;42175;46.930;9.532;2023-07-31T04:26:52;23.10;59.00
56268;DHT22;42175;46.930;9.532;2023-07-31T04:29:18;23.10;58.90
56268;DHT22;42175;46.930;9.532;2023-07-31T04:31:44;23.10;58.90
56268;DHT22;42175;46.930;9.532;2023-07-31T04:34:10;23.10;59.00
56268;DHT22;42175;46.930;9.532;2023-07-31T04:36:37;23.10;59.10
56268;DHT22;42175;46.930;9.532;2023-07-31T04:39:03;23.10;59.20
56268;DHT22;42175;46.930;9.532;2023-07-31T04:41:28;23.10;59.10
56268;DHT22;42175;46.930;9.532;2023-07-31T04:43:54;23.10;58.90
56268;DHT22;42175;46.930;9.532;2023-07-31T04:46:20;23.10;58.80
56268;DHT22;42175;46.930;9.532;2023-07-31T04:48:45;23.10;58.80
56268;DHT22;42175;46.930;9.532;2023-07-31T04:51:11;23.10;58.70
56268;DHT22;42175;46.930;9.532;2023-07-31T04:53:37;23.10;58.70
56268;DHT22;42175;46.930;9.532;2023-07-31T04:56:03;23.10;58.70
56268;DHT22;42175;46.930;9.532;2023-07-31T04:58:29;23.10;58.60
56268;DHT22;42175;46.930;9.532;2023-07-31T05:00:54;23.10;58.60
56268;DHT22;42175;46.930;9.532;2023-07-31T05:03:20;23.10;58.60
56268;DHT22;42175;46.930;9.532;2023-07-31T05:05:46;23.10;58.60
56268;DHT22;42175;46.930;9.532;2023-07-31T05:08:11;23.10;58.60
56268;DHT22;42175;46.930;9.532;2023-07-31T05:10:37;23.10;58.60
56268;DHT22;42175;46.930;9.532;2023-07-31T05:13:03;23.10;58.60
56268;DHT22;42175;46.930;9.532;2023-07-31T05:15:29;23.10;58.60
56268;DHT22;42175;46.930;9.532;2023-07-31T05:17:54;23.10;58.50
56268;DHT22;42175;46.930;9.532;2023-07-31T05:20:21;23.10;58.50
56268;DHT22;42175;46.930;9.532;2023-07-31T05:22:46;23.10;58.50
56268;DHT22;42175;46.930;9.532;2023-07-31T05:25:12;23.10;58.50
56268;DHT22;42175;46.930;9.532;2023-07-31T05:27:38;23.10;58.50
56268;DHT22;42175;46.930;9.532;2023-07-31T05:30:05;23.10;58.50
56268;DHT22;42175;46.930;9.532;2023-07-31T05:32:31;23.10;58.50
56268;DHT22;42175;46.930;9.532;2023-07-31T05:34:57;23.10;58.50
56268;DHT22;42175;46.930;9.532;2023-07-31T05:37:23;23.10;58.50
56268;DHT22;42175;46.930;9.532;2023-07-31T05:39:48;23.10;58.50
56268;DHT22;42175;46.930;9.532;2023-07-31T05:42:14;23.10;58.50
56268;DHT22;42175;46.930;9.532;2023-07-31T05:44:40;23.10;58.50
56268;DHT22;42175;46.930;9.532;2023-07-31T05:47:05;23.10;58.50
56268;DHT22;42175;46.930;9.532;2023-07-31T05:49:31;23.10;58.50
56268;DHT22;42175;46.930;9.532;2023-07-31T05:51:57;23.10;58.40
56268;DHT22;42175;46.930;9.532;2023-07-31T05:54:22;23.10;58.40
56268;DHT22;42175;46.930;9.532;2023-07-31T05:56:48;23.10;58.40
56268;DHT22;42175;46.930;9.532;2023-07-31T05:59:14;23.10;59.00
56268;DHT22;42175;46.930;9.532;2023-07-31T06:01:39;23.10;58.50
56268;DHT22;42175;46.930;9.532;2023-07-31T06:04:05;23.10;58.40
56268;DHT22;42175;46.930;9.532;2023-07-31T06:06:31;23.00;56.90
56268;DHT22;42175;46.930;9.532;2023-07-31T06:08:56;22.50;57.20
56268;DHT22;42175;46.930;9.532;2023-07-31T06:11:22;22.50;57.10
56268;DHT22;42175;46.930;9.532;2023-07-31T06:13:48;22.60;56.80
56268;DHT22;42175;46.930;9.532;2023-07-31T06:16:15;22.50;57.00
56268;DHT22;42175;46.930;9.532;2023-07-31T06:18:41;22.40;57.20
56268;DHT22;42175;46.930;9.532;2023-07-31T06:21:08;22.30;57.40
56268;DHT22;42175;46.930;9.532;2023-07-31T06:23:34;22.20;58.20
56268;DHT22;42175;46.930;9.532;2023-07-31T06:25:59;22.10;58.20
56268;DHT22;42175;46.930;9.532;2023-07-31T06:28:29;22.10;58.40
56268;DHT22;42175;46.930;9.532;2023-07-31T06:30:55;22.10;57.90
56268;DHT22;42175;46.930;9.532;2023-07-31T06:33:21;22.20;57.80
56268;DHT22;42175;46.930;9.532;2023-07-31T06:35:47;22.10;58.10
56268;DHT22;42175;46.930;9.532;2023-07-31T06:38:12;22.20;57.90
56268;DHT22;42175;46.930;9.532;2023-07-31T06:40:38;22.10;58.00
56268;DHT22;42175;46.930;9.532;2023-07-31T06:43:04;21.90;58.20
56268;DHT22;42175;46.930;9.532;2023-07-31T06:45:34;22.00;58.30
56268;DHT22;42175;46.930;9.532;2023-07-31T06:48:01;21.90;58.40
56268;DHT22;42175;46.930;9.532;2023-07-31T06:50:28;21.90;58.10
56268;DHT22;42175;46.930;9.532;2023-07-31T06:52:54;21.90;58.30
56268;DHT22;42175;46.930;9.532;2023-07-31T06:55:21;21.90;58.40
56268;DHT22;42175;46.930;9.532;2023-07-31T06:57:49;21.80;58.90
56268;DHT22;42175;46.930;9.532;2023-07-31T07:00:16;21.80;58.90
56268;DHT22;42175;46.930;9.532;2023-07-31T07:02:42;21.70;58.80
56268;DHT22;42175;46.930;9.532;2023-07-31T07:05:08;21.70;59.10
56268;DHT22;42175;46.930;9.532;2023-07-31T07:07:34;21.70;59.40
56268;DHT22;42175;46.930;9.532;2023-07-31T07:10:00;21.70;59.30
56268;DHT22;42175;46.930;9.532;2023-07-31T07:12:29;21.80;59.20
56268;DHT22;42175;46.930;9.532;2023-07-31T07:14:54;21.90;59.20
56268;DHT22;42175;46.930;9.532;2023-07-31T07:17:21;21.80;59.30
56268;DHT22;42175;46.930;9.532;2023-07-31T07:19:48;21.80;59.20
56268;DHT22;42175;46.930;9.532;2023-07-31T07:22:14;21.70;59.80
56268;DHT22;42175;46.930;9.532;2023-07-31T07:24:39;21.70;60.00
56268;DHT22;42175;46.930;9.532;2023-07-31T07:27:05;21.90;59.70
56268;DHT22;42175;46.930;9.532;2023-07-31T07:29:31;21.90;59.20
56268;DHT22;42175;46.930;9.532;2023-07-31T07:31:57;21.80;59.10
56268;DHT22;42175;46.930;9.532;2023-07-31T07:34:27;21.70;59.00
56268;DHT22;42175;46.930;9.532;2023-07-31T07:36:54;21.60;59.40
56268;DHT22;42175;46.930;9.532;2023-07-31T07:39:20;21.70;58.90
56268;DHT22;42175;46.930;9.532;2023-07-31T07:41:46;21.70;58.80
56268;DHT22;42175;46.930;9.532;2023-07-31T07:44:12;21.70;58.90
56268;DHT22;42175;46.930;9.532;2023-07-31T07:46:38;21.70;59.50
56268;DHT22;42175;46.930;9.532;2023-07-31T07:49:04;21.70;59.70
56268;DHT22;42175;46.930;9.532;2023-07-31T07:51:29;21.80;59.50
56268;DHT22;42175;46.930;9.532;2023-07-31T07:53:57;21.80;59.90
56268;DHT22;42175;46.930;9.532;2023-07-31T07:56:25;21.70;60.30
56268;DHT22;42175;46.930;9.532;2023-07-31T07:58:51;21.70;60.50
56268;DHT22;42175;46.930;9.532;2023-07-31T08:01:16;21.80;60.00
56268;DHT22;42175;46.930;9.532;2023-07-31T08:03:42;21.60;59.80
56268;DHT22;42175;46.930;9.532;2023-07-31T08:06:08;21.60;60.10
56268;DHT22;42175;46.930;9.532;2023-07-31T08:08:35;21.60;60.30
56268;DHT22;42175;46.930;9.532;2023-07-31T08:11:01;21.60;59.90
56268;DHT22;42175;46.930;9.532;2023-07-31T08:13:27;21.70;59.70
56268;DHT22;42175;46.930;9.532;2023-07-31T08:15:52;21.80;59.30
56268;DHT22;42175;46.930;9.532;2023-07-31T08:18:18;21.60;59.50
56268;DHT22;42175;46.930;9.532;2023-07-31T08:20:44;21.60;59.80
56268;DHT22;42175;46.930;9.532;2023-07-31T08:23:10;21.70;59.80
56268;DHT22;42175;46.930;9.532;2023-07-31T08:25:36;21.80;59.50
56268;DHT22;42175;46.930;9.532;2023-07-31T08:28:06;21.70;59.70
56268;DHT22;42175;46.930;9.532;2023-07-31T08:30:32;21.80;59.40
56268;DHT22;42175;46.930;9.532;2023-07-31T08:32:59;21.90;59.50
56268;DHT22;42175;46.930;9.532;2023-07-31T08:35:26;21.90;59.60
56268;DHT22;42175;46.930;9.532;2023-07-31T08:37:53;21.90;60.20
56268;DHT22;42175;46.930;9.532;2023-07-31T08:40:19;22.00;59.90
56268;DHT22;42175;46.930;9.532;2023-07-31T08:42:49;22.10;59.50
56268;DHT22;42175;46.930;9.532;2023-07-31T08:45:16;22.20;59.60
56268;DHT22;42175;46.930;9.532;2023-07-31T08:47:47;22.30;59.60
56268;DHT22;42175;46.930;9.532;2023-07-31T08:50:14;22.40;59.60
56268;DHT22;42175;46.930;9.532;2023-07-31T08:52:40;22.40;59.40
56268;DHT22;42175;46.930;9.532;2023-07-31T08:55:08;22.40;59.60
56268;DHT22;42175;46.930;9.532;2023-07-31T08:57:36;22.40;59.60
56268;DHT22;42175;46.930;9.532;2023-07-31T09:00:08;22.50;59.70
56268;DHT22;42175;46.930;9.532;2023-07-31T09:02:48;22.50;59.70
56268;DHT22;42175;46.930;9.532;2023-07-31T09:05:17;22.50;59.70
56268;DHT22;42175;46.930;9.532;2023-07-31T09:07:45;22.50;59.70
56268;DHT22;42175;46.930;9.532;2023-07-31T09:10:12;22.60;59.70
56268;DHT22;42175;46.930;9.532;2023-07-31T09:12:39;22.60;59.60
56268;DHT22;42175;46.930;9.532;2023-07-31T09:15:05;22.60;59.60
56268;DHT22;42175;46.930;9.532;2023-07-31T09:17:33;22.60;59.60
56268;DHT22;42175;46.930;9.532;2023-07-31T09:20:19;22.60;59.60
56268;DHT22;42175;46.930;9.532;2023-07-31T09:22:46;22.70;59.70
56268;DHT22;42175;46.930;9.532;2023-07-31T09:25:26;22.70;59.70
56268;DHT22;42175;46.930;9.532;2023-07-31T09:27:59;22.70;59.80
56268;DHT22;42175;46.930;9.532;2023-07-31T09:30:25;22.70;59.80
56268;DHT22;42175;46.930;9.532;2023-07-31T09:33:04;22.80;59.90
56268;DHT22;42175;46.930;9.532;2023-07-31T09:35:33;22.80;59.90
56268;DHT22;42175;46.930;9.532;2023-07-31T09:38:10;22.80;59.90
56268;DHT22;42175;46.930;9.532;2023-07-31T09:40:38;22.80;60.10
56268;DHT22;42175;46.930;9.532;2023-07-31T09:43:07;22.80;59.90
56268;DHT22;42175;46.930;9.532;2023-07-31T09:45:38;22.80;59.90
56268;DHT22;42175;46.930;9.532;2023-07-31T09:48:11;22.80;60.00
56268;DHT22;42175;46.930;9.532;2023-07-31T09:50:38;22.90;60.00
56268;DHT22;42175;46.930;9.532;2023-07-31T09:53:06;22.90;60.00
56268;DHT22;42175;46.930;9.532;2023-07-31T09:55:33;22.90;60.00
56268;DHT22;42175;46.930;9.532;2023-07-31T09:57:59;22.90;60.00
56268;DHT22;42175;46.930;9.532;2023-07-31T10:00:28;22.90;60.00
56268;DHT22;42175;46.930;9.532;2023-07-31T10:02:59;22.90;59.90
56268;DHT22;42175;46.930;9.532;2023-07-31T10:05:33;22.90;59.90
56268;DHT22;42175;46.930;9.532;2023-07-31T10:07:59;22.90;59.80
56268;DHT22;42175;46.930;9.532;2023-07-31T10:10:26;22.90;59.80
56268;DHT22;42175;46.930;9.532;2023-07-31T10:12:53;22.90;59.90
56268;DHT22;42175;46.930;9.532;2023-07-31T10:15:20;22.90;59.80
56268;DHT22;42175;46.930;9.532;2023-07-31T10:17:49;22.90;59.70
56268;DHT22;42175;46.930;9.532;2023-07-31T10:20:16;23.00;59.70
56268;DHT22;42175;46.930;9.532;2023-07-31T10:22:43;22.90;59.70
56268;DHT22;42175;46.930;9.532;2023-07-31T10:25:09;23.00;59.50
56268;DHT22;42175;46.930;9.532;2023-07-31T10:27:36;23.00;59.50
56268;DHT22;42175;46.930;9.532;2023-07-31T10:30:05;23.00;59.50
56268;DHT22;42175;46.930;9.532;2023-07-31T10:32:31;23.00;59.70
56268;DHT22;42175;46.930;9.532;2023-07-31T10:34:58;23.00;59.80
56268;DHT22;42175;46.930;9.532;2023-07-31T10:45:04;23.00;60.70
56268;DHT22;42175;46.930;9.532;2023-07-31T10:47:31;23.00;60.70
56268;DHT22;42175;46.930;9.532;2023-07-31T10:52:37;23.00;61.70
56268;DHT22;42175;46.930;9.532;2023-07-31T10:57:46;23.00;61.40
56268;DHT22;42175;46.930;9.532;2023-07-31T11:02:56;23.00;61.60
56268;DHT22;42175;46.930;9.532;2023-07-31T11:10:42;23.10;62.40
56268;DHT22;42175;46.930;9.532;2023-07-31T11:13:09;23.10;62.40
56268;DHT22;42175;46.930;9.532;2023-07-31T11:15:35;23.00;61.60
56268;DHT22;42175;46.930;9.532;2023-07-31T11:18:02;23.10;61.90
56268;DHT22;42175;46.930;9.532;2023-07-31T11:20:37;23.10;61.80
56268;DHT22;42175;46.930;9.532;2023-07-31T11:23:07;23.10;61.80
56268;DHT22;42175;46.930;9.532;2023-07-31T11:25:34;23.10;61.70
56268;DHT22;42175;46.930;9.532;2023-07-31T11:28:04;23.10;61.90
56268;DHT22;42175;46.930;9.532;2023-07-31T11:30:30;23.10;61.90
56268;DHT22;42175;46.930;9.532;2023-07-31T11:32:56;23.10;62.00
56268;DHT22;42175;46.930;9.532;2023-07-31T11:35:22;23.10;62.00
56268;DHT22;42175;46.930;9.532;2023-07-31T11:37:48;23.10;62.10
56268;DHT22;42175;46.930;9.532;2023-07-31T11:40:14;23.20;62.20
56268;DHT22;42175;46.930;9.532;2023-07-31T11:42:41;23.20;62.20
56268;DHT22;42175;46.930;9.532;2023-07-31T11:45:09;23.20;62.30
56268;DHT22;42175;46.930;9.532;2023-07-31T11:47:37;23.20;62.40
56268;DHT22;42175;46.930;9.532;2023-07-31T11:50:04;23.20;62.50
56268;DHT22;42175;46.930;9.532;2023-07-31T11:52:32;23.20;62.60
56268;DHT22;42175;46.930;9.532;2023-07-31T11:55:00;23.20;62.60
56268;DHT22;42175;46.930;9.532;2023-07-31T11:57:26;23.20;62.80
56268;DHT22;42175;46.930;9.532;2023-07-31T11:59:54;23.20;62.70
56268;DHT22;42175;46.930;9.532;2023-07-31T12:02:20;23.20;62.90
56268;DHT22;42175;46.930;9.532;2023-07-31T12:04:47;23.20;62.90
56268;DHT22;42175;46.930;9.532;2023-07-31T12:07:13;23.20;63.00
56268;DHT22;42175;46.930;9.532;2023-07-31T12:09:54;23.20;62.90
56268;DHT22;42175;46.930;9.532;2023-07-31T12:12:23;23.20;63.10
56268;DHT22;42175;46.930;9.532;2023-07-31T12:14:49;23.20;62.50
56268;DHT22;42175;46.930;9.532;2023-07-31T12:17:17;23.30;61.80
56268;DHT22;42175;46.930;9.532;2023-07-31T12:19:44;23.40;60.40
56268;DHT22;42175;46.930;9.532;2023-07-31T12:22:14;23.40;60.10
56268;DHT22;42175;46.930;9.532;2023-07-31T12:24:42;23.50;60.20
56268;DHT22;42175;46.930;9.532;2023-07-31T12:27:14;23.50;59.70
56268;DHT22;42175;46.930;9.532;2023-07-31T12:29:41;23.50;59.30
56268;DHT22;42175;46.930;9.532;2023-07-31T12:32:22;23.50;59.40
56268;DHT22;42175;46.930;9.532;2023-07-31T12:34:48;23.50;59.70
56268;DHT22;42175;46.930;9.532;2023-07-31T12:37:14;23.50;59.20
56268;DHT22;42175;46.930;9.532;2023-07-31T12:39:39;23.40;59.20
56268;DHT22;42175;46.930;9.532;2023-07-31T12:42:05;23.40;58.40
56268;DHT22;42175;46.930;9.532;2023-07-31T12:44:31;23.50;58.20
56268;DHT22;42175;46.930;9.532;2023-07-31T12:46:57;23.50;58.90
56268;DHT22;42175;46.930;9.532;2023-07-31T12:49:22;23.50;59.10
56268;DHT22;42175;46.930;9.532;2023-07-31T12:51:49;23.50;58.90
56268;DHT22;42175;46.930;9.532;2023-07-31T12:54:14;23.50;58.30
56268;DHT22;42175;46.930;9.532;2023-07-31T12:56:40;23.50;59.10
56268;DHT22;42175;46.930;9.532;2023-07-31T12:59:06;23.40;58.20
56268;DHT22;42175;46.930;9.532;2023-07-31T13:01:31;23.50;57.60
56268;DHT22;42175;46.930;9.532;2023-07-31T13:03:57;23.40;58.60
56268;DHT22;42175;46.930;9.532;2023-07-31T13:06:25;23.50;58.00
56268;DHT22;42175;46.930;9.532;2023-07-31T13:08:51;23.60;57.10
56268;DHT22;42175;46.930;9.532;2023-07-31T13:11:17;23.70;57.40
56268;DHT22;42175;46.930;9.532;2023-07-31T13:13:42;23.60;58.40
56268;DHT22;42175;46.930;9.532;2023-07-31T13:16:08;23.60;57.00
56268;DHT22;42175;46.930;9.532;2023-07-31T13:18:34;23.70;55.90
56268;DHT22;42175;46.930;9.532;2023-07-31T13:20:59;23.70;57.00
56268;DHT22;42175;46.930;9.532;2023-07-31T13:23:25;23.60;57.00
56268;DHT22;42175;46.930;9.532;2023-07-31T13:25:51;23.60;57.30
56268;DHT22;42175;46.930;9.532;2023-07-31T13:28:16;23.60;57.20
56268;DHT22;42175;46.930;9.532;2023-07-31T13:30:42;23.50;58.10
56268;DHT22;42175;46.930;9.532;2023-07-31T13:33:08;23.50;58.60
56268;DHT22;42175;46.930;9.532;2023-07-31T13:35:33;23.50;58.50
56268;DHT22;42175;46.930;9.532;2023-07-31T13:37:59;23.60;58.40
56268;DHT22;42175;46.930;9.532;2023-07-31T13:40:25;23.60;57.70
56268;DHT22;42175;46.930;9.532;2023-07-31T13:42:50;23.70;57.80
56268;DHT22;42175;46.930;9.532;2023-07-31T13:45:16;23.70;57.70
56268;DHT22;42175;46.930;9.532;2023-07-31T13:47:42;23.60;57.50
56268;DHT22;42175;46.930;9.532;2023-07-31T13:50:08;23.60;57.70
56268;DHT22;42175;46.930;9.532;2023-07-31T13:52:34;23.60;57.60
56268;DHT22;42175;46.930;9.532;2023-07-31T13:54:59;23.60;57.70
56268;DHT22;42175;46.930;9.532;2023-07-31T13:57:25;23.60;57.50
56268;DHT22;42175;46.930;9.532;2023-07-31T13:59:50;23.60;58.70
56268;DHT22;42175;46.930;9.532;2023-07-31T14:02:16;23.50;58.00
56268;DHT22;42175;46.930;9.532;2023-07-31T14:04:42;23.50;58.00
56268;DHT22;42175;46.930;9.532;2023-07-31T14:07:07;23.50;59.10
56268;DHT22;42175;46.930;9.532;2023-07-31T14:09:33;23.60;58.00
56268;DHT22;42175;46.930;9.532;2023-07-31T14:11:59;23.50;59.60
56268;DHT22;42175;46.930;9.532;2023-07-31T14:14:24;23.50;58.90
56268;DHT22;42175;46.930;9.532;2023-07-31T14:16:50;23.50;58.40
56268;DHT22;42175;46.930;9.532;2023-07-31T14:19:15;23.60;58.30
56268;DHT22;42175;46.930;9.532;2023-07-31T14:21:41;23.60;58.70
56268;DHT22;42175;46.930;9.532;2023-07-31T14:24:07;23.70;58.00
56268;DHT22;42175;46.930;9.532;2023-07-31T14:26:33;23.60;58.00
56268;DHT22;42175;46.930;9.532;2023-07-31T14:28:59;23.60;58.50
56268;DHT22;42175;46.930;9.532;2023-07-31T14:31:24;23.60;59.00
56268;DHT22;42175;46.930;9.532;2023-07-31T14:33:50;23.60;58.80
56268;DHT22;42175;46.930;9.532;2023-07-31T14:36:15;23.60;57.70
56268;DHT22;42175;46.930;9.532;2023-07-31T14:38:41;23.70;57.20
56268;DHT22;42175;46.930;9.532;2023-07-31T14:41:07;23.70;57.30
56268;DHT22;42175;46.930;9.532;2023-07-31T14:43:32;23.60;57.70
56268;DHT22;42175;46.930;9.532;2023-07-31T14:45:58;23.60;58.30
56268;DHT22;42175;46.930;9.532;2023-07-31T14:48:26;23.60;58.20
56268;DHT22;42175;46.930;9.532;2023-07-31T14:50:53;23.60;58.00
56268;DHT22;42175;46.930;9.532;2023-07-31T14:53:19;23.60;58.20
56268;DHT22;42175;46.930;9.532;2023-07-31T14:55:45;23.70;58.00
56268;DHT22;42175;46.930;9.532;2023-07-31T14:58:10;23.70;58.10
56268;DHT22;42175;46.930;9.532;2023-07-31T15:00:37;23.70;58.30
56268;DHT22;42175;46.930;9.532;2023-07-31T15:03:03;23.60;58.60
56268;DHT22;42175;46.930;9.532;2023-07-31T15:05:28;23.60;59.60
56268;DHT22;42175;46.930;9.532;2023-07-31T15:07:54;23.60;59.60
56268;DHT22;42175;46.930;9.532;2023-07-31T15:10:20;23.60;59.80
56268;DHT22;42175;46.930;9.532;2023-07-31T15:12:45;23.60;59.40
56268;DHT22;42175;46.930;9.532;2023-07-31T15:15:11;23.60;59.70
56268;DHT22;42175;46.930;9.532;2023-07-31T15:17:37;23.60;61.00
56268;DHT22;42175;46.930;9.532;2023-07-31T15:20:03;23.50;61.90
56268;DHT22;42175;46.930;9.532;2023-07-31T15:22:29;23.50;61.80
56268;DHT22;42175;46.930;9.532;2023-07-31T15:24:56;23.50;62.20
56268;DHT22;42175;46.930;9.532;2023-07-31T15:27:22;23.50;62.50
56268;DHT22;42175;46.930;9.532;2023-07-31T15:29:49;23.50;62.50
56268;DHT22;42175;46.930;9.532;2023-07-31T15:32:17;23.50;62.50
56268;DHT22;42175;46.930;9.532;2023-07-31T15:34:44;23.50;62.40
56268;DHT22;42175;46.930;9.532;2023-07-31T15:37:10;23.50;62.70
56268;DHT22;42175;46.930;9.532;2023-07-31T15:39:35;23.50;62.90
56268;DHT22;42175;46.930;9.532;2023-07-31T15:42:03;23.50;62.80
56268;DHT22;42175;46.930;9.532;2023-07-31T15:44:28;23.50;62.80
56268;DHT22;42175;46.930;9.532;2023-07-31T15:46:54;23.50;63.00
56268;DHT22;42175;46.930;9.532;2023-07-31T15:49:20;23.50;62.90
56268;DHT22;42175;46.930;9.532;2023-07-31T15:51:45;23.50;62.70
56268;DHT22;42175;46.930;9.532;2023-07-31T15:54:11;23.50;62.70
56268;DHT22;42175;46.930;9.532;2023-07-31T15:56:38;23.50;62.70